Flight Track Log - Related Links

Times and Time Zones

All times are in EDT time to prevent confusion due to time zone crossing. See the DAL3970 flight status page for this flight to view local times or setup timezone preferences in your user account.

Time Position Orientation Groundspeed Altitude Reporting Facility
EDT Latitude Longitude Course Direction KTS MPH feet Rate Location/Type
Wed 07:54:50 AM 44.7922 -89.7042 109° East 138 159 2,800  Level Minneapolis Center
Wed 07:55:51 AM 44.8056 -89.6336 75° East 194 223 4,800 1,918 Climbing Minneapolis Center
Wed 07:56:52 AM 44.7892 -89.5336 103° East 251 289 6,700 1,967 Climbing Minneapolis Center
Wed 07:57:00 AM 44.6911 -89.1525 107° East  Level FlightAware Approximate
Wed 07:57:53 AM 44.7708 -89.4250 103° East 293 337 8,800  Level Minneapolis Center
Wed 07:58:00 AM 44.6833 -89.0221 90° East  Level FlightAware Approximate
Wed 07:58:54 AM 44.7514 -89.3061 103° East 301 346 11,100  Level Minneapolis Center
Wed 07:59:00 AM 44.6535 -88.8973 109° East  Level FlightAware Approximate
Wed 07:59:55 AM 44.7289 -89.1786 104° East 341 392 12,000  Level Minneapolis Center
Wed 08:00:57 AM 44.7042 -89.0331 103° East 366 421 14,100 1,854 Climbing Minneapolis Center
Wed 08:01:58 AM 44.6769 -88.8847 104° East 368 423 15,800 1,574 Climbing Minneapolis Center
Wed 08:02:59 AM 44.6517 -88.7372 103° East 382 440 17,300 1,475 Climbing Minneapolis Center
Wed 08:04:00 AM 44.6258 -88.5881 104° East 391 450 18,800 1,082 Climbing Minneapolis Center
Wed 08:05:01 AM 44.5986 -88.4372 104° East 397 457 19,500 689 Climbing Minneapolis Center
Wed 08:06:02 AM 44.5700 -88.2761 104° East 418 481 20,200 689 Climbing Minneapolis Center
Wed 08:07:03 AM 44.5203 -88.1253 115° Southeast 430 495 20,900 639 Climbing Minneapolis Center
Wed 08:08:04 AM 44.4619 -88.0119 126° Southeast 431 496 21,500 738 Climbing Minneapolis Center
Wed 08:09:05 AM 44.3786 -87.8506 126° Southeast 437 503 22,400 787 Climbing Minneapolis Center
Wed 08:10:06 AM 44.3067 -87.7131 126° Southeast 439 505 23,100 689 Climbing Minneapolis Center
Wed 08:11:07 AM 44.2342 -87.5719 126° Southeast 445 512 23,800 689 Climbing Minneapolis Center
Wed 08:12:08 AM 44.1600 -87.4314 126° Southeast 447 514 24,500 689 Climbing Minneapolis Center
Wed 08:13:09 AM 44.0869 -87.2922 126° Southeast 445 512 25,200 683 Climbing Minneapolis Center
Wed 08:14:11 AM 44.0044 -87.1367 126° Southeast 444 511 25,900 585 Climbing Minneapolis Center
Wed 08:15:12 AM 43.9319 -86.9986 126° Southeast 444 511 26,400 492 Climbing Minneapolis Center
Wed 08:16:13 AM 43.8583 -86.8600 126° Southeast 445 512 26,900 293 Climbing Minneapolis Center
Wed 08:17:15 AM 43.7986 -86.7506 127° Southeast 446 513 27,000 44 Climbing Minneapolis Center
Wed 08:18:29 AM 43.6958 -86.5497 125° Southeast 457 526 27,000  Level Minneapolis Center
Wed 08:19:30 AM 43.6431 -86.3867 114° Southeast 462 532 27,000  Level Minneapolis Center
Wed 08:20:31 AM 43.5894 -86.2233 114° Southeast 465 535 27,000  Level Minneapolis Center
Wed 08:21:32 AM 43.5358 -86.0606 114° Southeast 465 535 27,000 -195 Level Minneapolis Center
Wed 08:22:34 AM 43.4800 -85.8981 115° Southeast 466 536 26,600 -732 Descending Minneapolis Center
Wed 08:23:35 AM 43.4247 -85.7344 115° Southeast 467 537 25,500 -1,087 Descending Minneapolis Center
Wed 08:24:52 AM 43.3469 -85.5089 115° Southeast 465 535 24,100 -1,036 Descending Chicago Center
Wed 08:25:54 AM 43.2919 -85.3472 115° Southeast 465 535 23,100 -733 Descending Chicago Center
Wed 08:26:22 AM 43.2672 -85.2794 117° Southeast 460 529 23,000 -69 Descending Cleveland Center
Wed 08:27:21 AM 43.2300 -85.1172 107° East 454 522 23,000  Level Cleveland Center
Wed 08:28:21 AM 43.1986 -84.9581 105° East 438 504 23,000 -250 Level Cleveland Center
Wed 08:29:21 AM 43.1708 -84.8081 104° East 423 487 22,500 -800 Descending Cleveland Center
Wed 08:30:21 AM 43.1408 -84.6550 105° East 418 481 21,400 -1,118 Descending Cleveland Center
Wed 08:31:03 AM 43.1214 -84.5408 103° East 397 457 20,600 -1,038 Descending Chicago Center
Wed 08:32:05 AM 43.0983 -84.4153 104° East 343 395 19,600 -976 Descending Chicago Center
Wed 08:33:06 AM 43.0733 -84.2883 105° East 345 397 18,600 -868 Descending Chicago Center
Wed 08:33:21 AM 43.0642 -84.2636 117° Southeast 354 407 18,500 -720 Descending Cleveland Center
Wed 08:34:21 AM 43.0411 -84.1400 104° East 341 392 17,700 -1,100 Descending Cleveland Center
Wed 08:35:21 AM 43.0197 -84.0222 104° East 330 380 16,300 -1,484 Descending Cleveland Center
Wed 08:35:54 AM 43.0053 -83.9447 104° East 309 356 15,400 -1,377 Descending Cleveland Center
Wed 08:36:22 AM 42.9958 -83.9072 109° East 317 365 14,900 -1,475 Descending Cleveland Center
Wed 08:36:55 AM 42.9792 -83.8297 106° East 313 360 13,900 -1,424 Descending Cleveland Center
Wed 08:37:21 AM 42.9592 -83.8061 139° Southeast 308 354 13,500 -1,343 Descending Cleveland Center
Wed 08:38:02 AM 42.9017 -83.7775 160° South 288 331 12,400 -1,300 Descending Cleveland Center
Wed 08:38:21 AM 42.8833 -83.7625 149° Southeast 272 313 12,200 -321 Descending Cleveland Center
Wed 08:38:58 AM 42.8361 -83.7344 156° South 288 331 12,100 -200 Descending Cleveland Center
Wed 08:39:21 AM 42.8092 -83.7219 161° South 277 319 12,000 -300 Descending Cleveland Center
Wed 08:39:58 AM 42.7581 -83.6883 154° Southeast 289 333 11,800 -400 Descending Cleveland Center
Wed 08:40:21 AM 42.7375 -83.6786 161° South 282 325 11,600 -982 Descending Cleveland Center
Wed 08:40:53 AM 42.6925 -83.6511 156° South 285 328 10,900 -1,000 Descending Cleveland Center
Wed 08:41:21 AM 42.6678 -83.6300 148° Southeast 288 331 10,600 -968 Descending Cleveland Center
Wed 08:41:55 AM 42.6467 -83.5669 114° Southeast 282 325 9,900 -1,000 Descending Cleveland Center
Wed 08:42:21 AM 42.6308 -83.5353 124° Southeast 273 314 9,600 -1,377 Descending Cleveland Center
Wed 08:42:56 AM 42.6094 -83.4719 115° Southeast 250 288 8,500 -1,600 Descending Cleveland Center
Wed 08:43:21 AM 42.5975 -83.4489 125° Southeast 268 308 8,000 -2,060 Descending Cleveland Center
Wed 08:44:03 AM 42.5656 -83.3883 126° Southeast 243 280 6,200 -1,900 Descending Cleveland Center
Wed 08:44:21 AM 42.5578 -83.3739 126° Southeast 263 303 6,100 -393 Descending Cleveland Center
Wed 08:45:04 AM 42.5278 -83.3189 126° Southeast 232 267 5,800 -750 Descending Cleveland Center
Wed 08:46:05 AM 42.4681 -83.2856 158° South 234 269 4,800 -829 Descending Cleveland Center
Wed 08:47:07 AM 42.4058 -83.2658 167° South 187 215 4,100 -564 Descending Cleveland Center
Wed 08:48:02 AM 42.3600 -83.2667 181° South 186 214 3,700 -436 Descending Cleveland Center

Login

Don't have an account? Register now (free) for customized features, flight alerts, and more!